sensor_id;sensor_type;location;lat;lon;timestamp;pressure;altitude;pressure_sealevel;temperature
51547;BMP180;37542;50.164;9.086;2022-11-09T00:02:48;100159.00;;;19.90
51547;BMP180;37542;50.164;9.086;2022-11-09T00:06:30;100151.00;;;19.80
51547;BMP180;37542;50.164;9.086;2022-11-09T00:10:12;100146.00;;;19.80
51547;BMP180;37542;50.164;9.086;2022-11-09T00:13:53;100143.00;;;19.80
51547;BMP180;37542;50.164;9.086;2022-11-09T00:17:33;100134.00;;;19.70
51547;BMP180;37542;50.164;9.086;2022-11-09T00:21:18;100124.00;;;19.70
51547;BMP180;37542;50.164;9.086;2022-11-09T00:24:59;100136.00;;;19.70
51547;BMP180;37542;50.164;9.086;2022-11-09T00:28:40;100130.00;;;19.60
51547;BMP180;37542;50.164;9.086;2022-11-09T00:32:21;100132.00;;;19.60
51547;BMP180;37542;50.164;9.086;2022-11-09T00:36:10;100138.00;;;19.60
51547;BMP180;37542;50.164;9.086;2022-11-09T00:39:51;100138.00;;;19.60
51547;BMP180;37542;50.164;9.086;2022-11-09T00:43:32;100153.00;;;19.60
51547;BMP180;37542;50.164;9.086;2022-11-09T00:47:13;100173.00;;;19.50
51547;BMP180;37542;50.164;9.086;2022-11-09T00:50:55;100196.00;;;19.50
51547;BMP180;37542;50.164;9.086;2022-11-09T00:54:36;100210.00;;;19.50
51547;BMP180;37542;50.164;9.086;2022-11-09T00:58:17;100196.00;;;19.50
51547;BMP180;37542;50.164;9.086;2022-11-09T01:01:58;100212.00;;;19.50
51547;BMP180;37542;50.164;9.086;2022-11-09T01:05:38;100211.00;;;19.40
51547;BMP180;37542;50.164;9.086;2022-11-09T01:09:19;100219.00;;;19.40
51547;BMP180;37542;50.164;9.086;2022-11-09T01:13:00;100222.00;;;19.30
51547;BMP180;37542;50.164;9.086;2022-11-09T01:16:41;100217.00;;;19.30
51547;BMP180;37542;50.164;9.086;2022-11-09T01:20:22;100221.00;;;19.30
51547;BMP180;37542;50.164;9.086;2022-11-09T01:24:03;100224.00;;;19.20
51547;BMP180;37542;50.164;9.086;2022-11-09T01:27:44;100221.00;;;19.20
51547;BMP180;37542;50.164;9.086;2022-11-09T01:31:26;100227.00;;;19.20
51547;BMP180;37542;50.164;9.086;2022-11-09T01:35:07;100218.00;;;19.20
51547;BMP180;37542;50.164;9.086;2022-11-09T01:38:49;100195.00;;;19.20
51547;BMP180;37542;50.164;9.086;2022-11-09T01:42:35;100174.00;;;19.10
51547;BMP180;37542;50.164;9.086;2022-11-09T01:46:32;100187.00;;;19.10
51547;BMP180;37542;50.164;9.086;2022-11-09T01:50:18;100199.00;;;19.10
51547;BMP180;37542;50.164;9.086;2022-11-09T01:54:18;100203.00;;;19.10
51547;BMP180;37542;50.164;9.086;2022-11-09T01:58:11;100200.00;;;19.10
51547;BMP180;37542;50.164;9.086;2022-11-09T02:01:53;100223.00;;;19.10
51547;BMP180;37542;50.164;9.086;2022-11-09T02:05:36;100224.00;;;19.10
51547;BMP180;37542;50.164;9.086;2022-11-09T02:09:50;100235.00;;;19.10
51547;BMP180;37542;50.164;9.086;2022-11-09T02:13:36;100228.00;;;19.10
51547;BMP180;37542;50.164;9.086;2022-11-09T02:17:18;100227.00;;;19.10
51547;BMP180;37542;50.164;9.086;2022-11-09T02:21:00;100225.00;;;19.10
51547;BMP180;37542;50.164;9.086;2022-11-09T02:24:41;100223.00;;;19.20
51547;BMP180;37542;50.164;9.086;2022-11-09T02:28:24;100220.00;;;19.10
51547;BMP180;37542;50.164;9.086;2022-11-09T02:32:18;100215.00;;;19.10
51547;BMP180;37542;50.164;9.086;2022-11-09T02:35:59;100219.00;;;19.20
51547;BMP180;37542;50.164;9.086;2022-11-09T02:39:40;100213.00;;;19.20
51547;BMP180;37542;50.164;9.086;2022-11-09T02:43:21;100204.00;;;19.20
51547;BMP180;37542;50.164;9.086;2022-11-09T02:47:02;100202.00;;;19.20
51547;BMP180;37542;50.164;9.086;2022-11-09T02:50:43;100192.00;;;19.20
51547;BMP180;37542;50.164;9.086;2022-11-09T02:54:24;100186.00;;;19.20
51547;BMP180;37542;50.164;9.086;2022-11-09T02:58:05;100192.00;;;19.20
51547;BMP180;37542;50.164;9.086;2022-11-09T03:01:45;100186.00;;;19.20
51547;BMP180;37542;50.164;9.086;2022-11-09T03:05:26;100179.00;;;19.20
51547;BMP180;37542;50.164;9.086;2022-11-09T03:09:10;100167.00;;;19.20
51547;BMP180;37542;50.164;9.086;2022-11-09T03:12:51;100161.00;;;19.20
51547;BMP180;37542;50.164;9.086;2022-11-09T03:16:34;100151.00;;;19.20
51547;BMP180;37542;50.164;9.086;2022-11-09T03:20:15;100160.00;;;19.20
51547;BMP180;37542;50.164;9.086;2022-11-09T03:23:56;100154.00;;;19.20
51547;BMP180;37542;50.164;9.086;2022-11-09T03:27:36;100151.00;;;19.20
51547;BMP180;37542;50.164;9.086;2022-11-09T03:31:17;100146.00;;;19.10
51547;BMP180;37542;50.164;9.086;2022-11-09T03:34:58;100178.00;;;19.10
51547;BMP180;37542;50.164;9.086;2022-11-09T03:38:39;100155.00;;;19.10
51547;BMP180;37542;50.164;9.086;2022-11-09T03:42:19;100137.00;;;19.10
51547;BMP180;37542;50.164;9.086;2022-11-09T03:46:00;100144.00;;;19.10
51547;BMP180;37542;50.164;9.086;2022-11-09T03:49:41;100150.00;;;19.10
51547;BMP180;37542;50.164;9.086;2022-11-09T03:53:21;100144.00;;;19.00
51547;BMP180;37542;50.164;9.086;2022-11-09T03:57:02;100125.00;;;19.00
51547;BMP180;37542;50.164;9.086;2022-11-09T04:00:43;100129.00;;;19.00
51547;BMP180;37542;50.164;9.086;2022-11-09T04:04:24;100138.00;;;19.00
51547;BMP180;37542;50.164;9.086;2022-11-09T04:08:05;100146.00;;;18.90
51547;BMP180;37542;50.164;9.086;2022-11-09T04:11:45;100198.00;;;19.00
51547;BMP180;37542;50.164;9.086;2022-11-09T04:15:26;100199.00;;;19.00
51547;BMP180;37542;50.164;9.086;2022-11-09T04:19:07;100210.00;;;19.00
51547;BMP180;37542;50.164;9.086;2022-11-09T04:22:58;100212.00;;;19.00
51547;BMP180;37542;50.164;9.086;2022-11-09T04:26:39;100220.00;;;19.10
51547;BMP180;37542;50.164;9.086;2022-11-09T04:30:19;100210.00;;;19.10
51547;BMP180;37542;50.164;9.086;2022-11-09T04:34:00;100201.00;;;19.10
51547;BMP180;37542;50.164;9.086;2022-11-09T04:37:41;100213.00;;;19.10
51547;BMP180;37542;50.164;9.086;2022-11-09T04:41:22;100213.00;;;19.10
51547;BMP180;37542;50.164;9.086;2022-11-09T04:45:03;100229.00;;;19.10
51547;BMP180;37542;50.164;9.086;2022-11-09T04:48:44;100221.00;;;19.10
51547;BMP180;37542;50.164;9.086;2022-11-09T04:52:24;100215.00;;;19.10
51547;BMP180;37542;50.164;9.086;2022-11-09T04:56:06;100223.00;;;19.10
51547;BMP180;37542;50.164;9.086;2022-11-09T04:59:47;100211.00;;;19.10
51547;BMP180;37542;50.164;9.086;2022-11-09T05:03:28;100221.00;;;19.10
51547;BMP180;37542;50.164;9.086;2022-11-09T05:07:09;100215.00;;;19.10
51547;BMP180;37542;50.164;9.086;2022-11-09T05:10:50;100226.00;;;19.10
51547;BMP180;37542;50.164;9.086;2022-11-09T05:14:31;100227.00;;;19.10
51547;BMP180;37542;50.164;9.086;2022-11-09T05:18:12;100225.00;;;19.10
51547;BMP180;37542;50.164;9.086;2022-11-09T05:21:53;100220.00;;;19.10
51547;BMP180;37542;50.164;9.086;2022-11-09T05:25:34;100213.00;;;19.10
51547;BMP180;37542;50.164;9.086;2022-11-09T05:29:14;100210.00;;;19.10
51547;BMP180;37542;50.164;9.086;2022-11-09T05:32:55;100206.00;;;19.10
51547;BMP180;37542;50.164;9.086;2022-11-09T05:36:36;100202.00;;;19.10
51547;BMP180;37542;50.164;9.086;2022-11-09T05:40:19;100194.00;;;19.10
51547;BMP180;37542;50.164;9.086;2022-11-09T05:44:00;100195.00;;;19.10
51547;BMP180;37542;50.164;9.086;2022-11-09T05:47:43;100205.00;;;19.10
51547;BMP180;37542;50.164;9.086;2022-11-09T05:51:24;100202.00;;;19.00
51547;BMP180;37542;50.164;9.086;2022-11-09T05:55:06;100200.00;;;19.00
51547;BMP180;37542;50.164;9.086;2022-11-09T05:58:47;100162.00;;;19.00
51547;BMP180;37542;50.164;9.086;2022-11-09T06:02:33;100193.00;;;19.00
51547;BMP180;37542;50.164;9.086;2022-11-09T06:06:45;100125.00;;;18.90
51547;BMP180;37542;50.164;9.086;2022-11-09T06:10:28;100172.00;;;18.90
51547;BMP180;37542;50.164;9.086;2022-11-09T06:14:12;100183.00;;;18.90
51547;BMP180;37542;50.164;9.086;2022-11-09T06:17:55;100175.00;;;18.80
51547;BMP180;37542;50.164;9.086;2022-11-09T06:21:36;100180.00;;;18.80
51547;BMP180;37542;50.164;9.086;2022-11-09T06:25:16;100192.00;;;18.80
51547;BMP180;37542;50.164;9.086;2022-11-09T06:28:57;100166.00;;;18.80
51547;BMP180;37542;50.164;9.086;2022-11-09T06:32:38;100181.00;;;18.80
51547;BMP180;37542;50.164;9.086;2022-11-09T06:36:19;100186.00;;;18.80
51547;BMP180;37542;50.164;9.086;2022-11-09T06:40:00;100188.00;;;18.70
51547;BMP180;37542;50.164;9.086;2022-11-09T06:43:41;100191.00;;;18.80
51547;BMP180;37542;50.164;9.086;2022-11-09T06:47:22;100193.00;;;18.80
51547;BMP180;37542;50.164;9.086;2022-11-09T06:51:04;100201.00;;;18.80
51547;BMP180;37542;50.164;9.086;2022-11-09T06:54:45;100218.00;;;18.80
51547;BMP180;37542;50.164;9.086;2022-11-09T06:58:27;100232.00;;;18.80
51547;BMP180;37542;50.164;9.086;2022-11-09T07:02:14;100241.00;;;18.80
51547;BMP180;37542;50.164;9.086;2022-11-09T07:05:56;100228.00;;;18.80
51547;BMP180;37542;50.164;9.086;2022-11-09T07:09:37;100231.00;;;18.90
51547;BMP180;37542;50.164;9.086;2022-11-09T07:13:18;100248.00;;;18.90
51547;BMP180;37542;50.164;9.086;2022-11-09T07:16:59;100241.00;;;18.90
51547;BMP180;37542;50.164;9.086;2022-11-09T07:20:39;100245.00;;;18.90
51547;BMP180;37542;50.164;9.086;2022-11-09T07:24:20;100244.00;;;18.90
51547;BMP180;37542;50.164;9.086;2022-11-09T07:28:06;100242.00;;;18.90
51547;BMP180;37542;50.164;9.086;2022-11-09T07:31:48;100252.00;;;18.90
51547;BMP180;37542;50.164;9.086;2022-11-09T07:35:29;100255.00;;;19.00
51547;BMP180;37542;50.164;9.086;2022-11-09T07:39:10;100270.00;;;19.00
51547;BMP180;37542;50.164;9.086;2022-11-09T07:42:51;100272.00;;;19.00
51547;BMP180;37542;50.164;9.086;2022-11-09T07:46:32;100276.00;;;19.00
51547;BMP180;37542;50.164;9.086;2022-11-09T07:50:15;100254.00;;;19.10
51547;BMP180;37542;50.164;9.086;2022-11-09T07:53:55;100270.00;;;19.10
51547;BMP180;37542;50.164;9.086;2022-11-09T07:57:36;100259.00;;;19.10
51547;BMP180;37542;50.164;9.086;2022-11-09T08:01:17;100257.00;;;19.10
51547;BMP180;37542;50.164;9.086;2022-11-09T08:05:08;100276.00;;;19.20
51547;BMP180;37542;50.164;9.086;2022-11-09T08:08:49;100276.00;;;19.20
51547;BMP180;37542;50.164;9.086;2022-11-09T08:12:30;100282.00;;;19.20
51547;BMP180;37542;50.164;9.086;2022-11-09T08:16:11;100283.00;;;19.30
51547;BMP180;37542;50.164;9.086;2022-11-09T08:19:51;100271.00;;;19.30
51547;BMP180;37542;50.164;9.086;2022-11-09T08:23:32;100281.00;;;19.30
51547;BMP180;37542;50.164;9.086;2022-11-09T08:27:16;100285.00;;;19.20
51547;BMP180;37542;50.164;9.086;2022-11-09T08:31:00;100284.00;;;19.30
51547;BMP180;37542;50.164;9.086;2022-11-09T08:34:46;100290.00;;;19.40
51547;BMP180;37542;50.164;9.086;2022-11-09T08:38:28;100307.00;;;19.50
51547;BMP180;37542;50.164;9.086;2022-11-09T08:42:08;100305.00;;;19.50
51547;BMP180;37542;50.164;9.086;2022-11-09T08:45:49;100300.00;;;19.50
51547;BMP180;37542;50.164;9.086;2022-11-09T08:49:30;100267.00;;;19.60
51547;BMP180;37542;50.164;9.086;2022-11-09T08:53:11;100292.00;;;19.50
51547;BMP180;37542;50.164;9.086;2022-11-09T08:56:55;100284.00;;;19.50
51547;BMP180;37542;50.164;9.086;2022-11-09T09:00:36;100301.00;;;19.70
51547;BMP180;37542;50.164;9.086;2022-11-09T09:04:17;100301.00;;;19.70
51547;BMP180;37542;50.164;9.086;2022-11-09T09:07:59;100314.00;;;19.70
51547;BMP180;37542;50.164;9.086;2022-11-09T09:11:39;100295.00;;;19.70
51547;BMP180;37542;50.164;9.086;2022-11-09T09:15:21;100291.00;;;19.70
51547;BMP180;37542;50.164;9.086;2022-11-09T09:19:02;100310.00;;;19.70
51547;BMP180;37542;50.164;9.086;2022-11-09T09:22:43;100310.00;;;19.80
51547;BMP180;37542;50.164;9.086;2022-11-09T09:26:24;100307.00;;;19.80
51547;BMP180;37542;50.164;9.086;2022-11-09T09:30:06;100310.00;;;19.80
51547;BMP180;37542;50.164;9.086;2022-11-09T09:33:50;100316.00;;;19.80
51547;BMP180;37542;50.164;9.086;2022-11-09T09:37:30;100321.00;;;19.90
51547;BMP180;37542;50.164;9.086;2022-11-09T09:45:25;100336.00;;;19.90
51547;BMP180;37542;50.164;9.086;2022-11-09T09:49:20;100330.00;;;19.90
51547;BMP180;37542;50.164;9.086;2022-11-09T09:53:05;100336.00;;;19.90
51547;BMP180;37542;50.164;9.086;2022-11-09T09:56:57;100354.00;;;20.00
51547;BMP180;37542;50.164;9.086;2022-11-09T10:00:40;100335.00;;;20.00
51547;BMP180;37542;50.164;9.086;2022-11-09T10:04:34;100337.00;;;20.00
51547;BMP180;37542;50.164;9.086;2022-11-09T10:08:59;100341.00;;;20.00
51547;BMP180;37542;50.164;9.086;2022-11-09T10:25:00;100345.00;;;20.00
51547;BMP180;37542;50.164;9.086;2022-11-09T10:28:48;100344.00;;;20.10
51547;BMP180;37542;50.164;9.086;2022-11-09T10:32:47;100330.00;;;20.20
51547;BMP180;37542;50.164;9.086;2022-11-09T10:36:43;100337.00;;;20.20
51547;BMP180;37542;50.164;9.086;2022-11-09T10:40:36;100345.00;;;20.20
51547;BMP180;37542;50.164;9.086;2022-11-09T10:44:19;100331.00;;;20.30
51547;BMP180;37542;50.164;9.086;2022-11-09T10:48:01;100316.00;;;20.40
51547;BMP180;37542;50.164;9.086;2022-11-09T10:51:44;100326.00;;;20.50
51547;BMP180;37542;50.164;9.086;2022-11-09T10:55:28;100313.00;;;20.50
51547;BMP180;37542;50.164;9.086;2022-11-09T10:59:53;100320.00;;;20.50
51547;BMP180;37542;50.164;9.086;2022-11-09T11:03:55;100335.00;;;20.60
51547;BMP180;37542;50.164;9.086;2022-11-09T11:07:39;100243.00;;;20.70
51547;BMP180;37542;50.164;9.086;2022-11-09T11:11:31;100314.00;;;20.70
51547;BMP180;37542;50.164;9.086;2022-11-09T11:15:40;100319.00;;;20.80
51547;BMP180;37542;50.164;9.086;2022-11-09T11:19:39;100306.00;;;20.80
51547;BMP180;37542;50.164;9.086;2022-11-09T11:23:25;100308.00;;;20.90
51547;BMP180;37542;50.164;9.086;2022-11-09T11:31:19;100312.00;;;21.00
51547;BMP180;37542;50.164;9.086;2022-11-09T11:35:03;100313.00;;;21.10
51547;BMP180;37542;50.164;9.086;2022-11-09T11:39:12;100311.00;;;21.20
51547;BMP180;37542;50.164;9.086;2022-11-09T11:43:18;100309.00;;;21.30
51547;BMP180;37542;50.164;9.086;2022-11-09T11:47:27;100317.00;;;21.40
51547;BMP180;37542;50.164;9.086;2022-11-09T11:59:11;100317.00;;;21.50
51547;BMP180;37542;50.164;9.086;2022-11-09T12:03:33;100326.00;;;21.60
51547;BMP180;37542;50.164;9.086;2022-11-09T12:16:06;100312.00;;;21.70
51547;BMP180;37542;50.164;9.086;2022-11-09T12:40:27;100302.00;;;21.90
51547;BMP180;37542;50.164;9.086;2022-11-09T12:44:23;100303.00;;;22.00
51547;BMP180;37542;50.164;9.086;2022-11-09T12:48:29;100306.00;;;22.00
51547;BMP180;37542;50.164;9.086;2022-11-09T12:52:15;100314.00;;;22.10
51547;BMP180;37542;50.164;9.086;2022-11-09T12:59:50;100308.00;;;22.20
51547;BMP180;37542;50.164;9.086;2022-11-09T13:03:37;100306.00;;;22.20
51547;BMP180;37542;50.164;9.086;2022-11-09T13:07:47;100301.00;;;22.20
51547;BMP180;37542;50.164;9.086;2022-11-09T13:11:49;100294.00;;;22.20
51547;BMP180;37542;50.164;9.086;2022-11-09T13:15:33;100305.00;;;22.20
51547;BMP180;37542;50.164;9.086;2022-11-09T13:23:38;100311.00;;;22.20
51547;BMP180;37542;50.164;9.086;2022-11-09T13:27:38;100316.00;;;22.20
51547;BMP180;37542;50.164;9.086;2022-11-09T13:39:29;100322.00;;;22.20
51547;BMP180;37542;50.164;9.086;2022-11-09T13:46:52;100310.00;;;22.10
51547;BMP180;37542;50.164;9.086;2022-11-09T13:50:34;100308.00;;;22.10
51547;BMP180;37542;50.164;9.086;2022-11-09T13:54:33;100309.00;;;22.10
51547;BMP180;37542;50.164;9.086;2022-11-09T13:58:32;100320.00;;;22.00
51547;BMP180;37542;50.164;9.086;2022-11-09T14:02:21;100326.00;;;22.00
51547;BMP180;37542;50.164;9.086;2022-11-09T14:06:02;100320.00;;;22.00
51547;BMP180;37542;50.164;9.086;2022-11-09T14:14:28;100330.00;;;22.00
51547;BMP180;37542;50.164;9.086;2022-11-09T14:22:17;100344.00;;;21.90
51547;BMP180;37542;50.164;9.086;2022-11-09T14:26:18;100337.00;;;21.90
51547;BMP180;37542;50.164;9.086;2022-11-09T14:30:00;100333.00;;;21.90
51547;BMP180;37542;50.164;9.086;2022-11-09T14:33:42;100334.00;;;21.90
51547;BMP180;37542;50.164;9.086;2022-11-09T14:37:22;100325.00;;;21.90
51547;BMP180;37542;50.164;9.086;2022-11-09T14:41:03;100346.00;;;21.90
51547;BMP180;37542;50.164;9.086;2022-11-09T14:44:45;100340.00;;;21.90
51547;BMP180;37542;50.164;9.086;2022-11-09T14:48:28;100332.00;;;21.80
51547;BMP180;37542;50.164;9.086;2022-11-09T14:52:18;100337.00;;;21.80
51547;BMP180;37542;50.164;9.086;2022-11-09T14:56:06;100345.00;;;21.80
51547;BMP180;37542;50.164;9.086;2022-11-09T14:59:47;100335.00;;;21.80
51547;BMP180;37542;50.164;9.086;2022-11-09T15:03:29;100355.00;;;21.70
51547;BMP180;37542;50.164;9.086;2022-11-09T15:07:19;100357.00;;;21.70
51547;BMP180;37542;50.164;9.086;2022-11-09T15:11:01;100354.00;;;21.60
51547;BMP180;37542;50.164;9.086;2022-11-09T15:14:57;100367.00;;;21.50
51547;BMP180;37542;50.164;9.086;2022-11-09T15:18:44;100369.00;;;21.50
51547;BMP180;37542;50.164;9.086;2022-11-09T15:26:43;100371.00;;;21.30
51547;BMP180;37542;50.164;9.086;2022-11-09T15:34:56;100361.00;;;21.10
51547;BMP180;37542;50.164;9.086;2022-11-09T15:38:42;100369.00;;;21.00
51547;BMP180;37542;50.164;9.086;2022-11-09T15:42:25;100374.00;;;20.90
51547;BMP180;37542;50.164;9.086;2022-11-09T15:46:06;100369.00;;;20.90
51547;BMP180;37542;50.164;9.086;2022-11-09T15:49:47;100380.00;;;20.80
51547;BMP180;37542;50.164;9.086;2022-11-09T15:53:28;100396.00;;;20.80
51547;BMP180;37542;50.164;9.086;2022-11-09T15:57:15;100362.00;;;20.70
51547;BMP180;37542;50.164;9.086;2022-11-09T16:00:56;100383.00;;;20.70
51547;BMP180;37542;50.164;9.086;2022-11-09T16:04:37;100384.00;;;20.60
51547;BMP180;37542;50.164;9.086;2022-11-09T16:08:18;100395.00;;;20.50
51547;BMP180;37542;50.164;9.086;2022-11-09T16:11:59;100394.00;;;20.50
51547;BMP180;37542;50.164;9.086;2022-11-09T16:15:40;100391.00;;;20.40
51547;BMP180;37542;50.164;9.086;2022-11-09T16:19:21;100406.00;;;20.30
51547;BMP180;37542;50.164;9.086;2022-11-09T16:23:01;100396.00;;;20.30
51547;BMP180;37542;50.164;9.086;2022-11-09T16:26:42;100390.00;;;20.20
51547;BMP180;37542;50.164;9.086;2022-11-09T16:30:24;100409.00;;;20.20
51547;BMP180;37542;50.164;9.086;2022-11-09T16:34:05;100411.00;;;20.20
51547;BMP180;37542;50.164;9.086;2022-11-09T16:37:46;100406.00;;;20.00
51547;BMP180;37542;50.164;9.086;2022-11-09T16:41:30;100424.00;;;20.10
51547;BMP180;37542;50.164;9.086;2022-11-09T16:45:15;100420.00;;;20.00
51547;BMP180;37542;50.164;9.086;2022-11-09T16:49:00;100417.00;;;20.00
51547;BMP180;37542;50.164;9.086;2022-11-09T16:52:42;100431.00;;;19.90
51547;BMP180;37542;50.164;9.086;2022-11-09T16:56:23;100443.00;;;19.90
51547;BMP180;37542;50.164;9.086;2022-11-09T17:00:06;100452.00;;;19.90
51547;BMP180;37542;50.164;9.086;2022-11-09T17:03:47;100463.00;;;19.80
51547;BMP180;37542;50.164;9.086;2022-11-09T17:07:28;100482.00;;;19.80
51547;BMP180;37542;50.164;9.086;2022-11-09T17:11:13;100481.00;;;19.80
51547;BMP180;37542;50.164;9.086;2022-11-09T17:14:54;100491.00;;;19.70
51547;BMP180;37542;50.164;9.086;2022-11-09T17:18:35;100474.00;;;19.60
51547;BMP180;37542;50.164;9.086;2022-11-09T17:22:18;100490.00;;;19.70
51547;BMP180;37542;50.164;9.086;2022-11-09T17:26:03;100516.00;;;19.60
51547;BMP180;37542;50.164;9.086;2022-11-09T17:29:47;100507.00;;;19.60
51547;BMP180;37542;50.164;9.086;2022-11-09T17:33:28;100491.00;;;19.60
51547;BMP180;37542;50.164;9.086;2022-11-09T17:37:09;100507.00;;;19.50
51547;BMP180;37542;50.164;9.086;2022-11-09T17:40:49;100498.00;;;19.50
51547;BMP180;37542;50.164;9.086;2022-11-09T17:44:33;100547.00;;;19.50
51547;BMP180;37542;50.164;9.086;2022-11-09T17:48:15;100540.00;;;19.50
51547;BMP180;37542;50.164;9.086;2022-11-09T17:51:55;100542.00;;;19.50
51547;BMP180;37542;50.164;9.086;2022-11-09T17:55:37;100538.00;;;19.50
51547;BMP180;37542;50.164;9.086;2022-11-09T17:59:18;100546.00;;;19.60
51547;BMP180;37542;50.164;9.086;2022-11-09T18:02:59;100554.00;;;19.60
51547;BMP180;37542;50.164;9.086;2022-11-09T18:06:39;100555.00;;;19.60
51547;BMP180;37542;50.164;9.086;2022-11-09T18:10:20;100550.00;;;19.60
51547;BMP180;37542;50.164;9.086;2022-11-09T18:14:01;100557.00;;;19.60
51547;BMP180;37542;50.164;9.086;2022-11-09T18:17:42;100549.00;;;19.60
51547;BMP180;37542;50.164;9.086;2022-11-09T18:21:23;100545.00;;;19.60
51547;BMP180;37542;50.164;9.086;2022-11-09T18:25:05;100553.00;;;19.60
51547;BMP180;37542;50.164;9.086;2022-11-09T18:28:46;100582.00;;;19.60
51547;BMP180;37542;50.164;9.086;2022-11-09T18:32:27;100586.00;;;19.40
51547;BMP180;37542;50.164;9.086;2022-11-09T18:36:18;100570.00;;;19.70
51547;BMP180;37542;50.164;9.086;2022-11-09T18:40:00;100565.00;;;19.70
51547;BMP180;37542;50.164;9.086;2022-11-09T18:43:45;100583.00;;;19.60
51547;BMP180;37542;50.164;9.086;2022-11-09T18:47:29;100600.00;;;19.60
51547;BMP180;37542;50.164;9.086;2022-11-09T18:51:10;100570.00;;;19.60
51547;BMP180;37542;50.164;9.086;2022-11-09T18:54:51;100605.00;;;19.50
51547;BMP180;37542;50.164;9.086;2022-11-09T18:58:33;100580.00;;;19.60
51547;BMP180;37542;50.164;9.086;2022-11-09T19:02:15;100588.00;;;19.60
51547;BMP180;37542;50.164;9.086;2022-11-09T19:05:55;100597.00;;;19.60
51547;BMP180;37542;50.164;9.086;2022-11-09T19:09:37;100588.00;;;19.50
51547;BMP180;37542;50.164;9.086;2022-11-09T19:13:20;100578.00;;;19.50
51547;BMP180;37542;50.164;9.086;2022-11-09T19:17:01;100594.00;;;19.50
51547;BMP180;37542;50.164;9.086;2022-11-09T19:20:42;100614.00;;;19.50
51547;BMP180;37542;50.164;9.086;2022-11-09T19:24:25;100594.00;;;19.40
51547;BMP180;37542;50.164;9.086;2022-11-09T19:28:08;100626.00;;;19.40
51547;BMP180;37542;50.164;9.086;2022-11-09T19:31:48;100626.00;;;19.40
51547;BMP180;37542;50.164;9.086;2022-11-09T19:35:29;100640.00;;;19.20
51547;BMP180;37542;50.164;9.086;2022-11-09T19:39:11;100654.00;;;19.30
51547;BMP180;37542;50.164;9.086;2022-11-09T19:42:52;100607.00;;;19.20
51547;BMP180;37542;50.164;9.086;2022-11-09T19:46:34;100655.00;;;19.00
51547;BMP180;37542;50.164;9.086;2022-11-09T19:50:16;100657.00;;;19.20
51547;BMP180;37542;50.164;9.086;2022-11-09T19:54:00;100672.00;;;19.10
51547;BMP180;37542;50.164;9.086;2022-11-09T19:57:41;100672.00;;;19.10
51547;BMP180;37542;50.164;9.086;2022-11-09T20:01:22;100670.00;;;19.00
51547;BMP180;37542;50.164;9.086;2022-11-09T20:05:04;100683.00;;;19.00
51547;BMP180;37542;50.164;9.086;2022-11-09T20:08:45;100686.00;;;18.90
51547;BMP180;37542;50.164;9.086;2022-11-09T20:12:27;100688.00;;;19.00
51547;BMP180;37542;50.164;9.086;2022-11-09T20:16:27;100686.00;;;18.90
51547;BMP180;37542;50.164;9.086;2022-11-09T20:20:08;100688.00;;;18.90
51547;BMP180;37542;50.164;9.086;2022-11-09T20:23:49;100708.00;;;18.90
51547;BMP180;37542;50.164;9.086;2022-11-09T20:27:31;100700.00;;;18.80
51547;BMP180;37542;50.164;9.086;2022-11-09T20:31:18;100708.00;;;18.80
51547;BMP180;37542;50.164;9.086;2022-11-09T20:34:59;100718.00;;;18.80
51547;BMP180;37542;50.164;9.086;2022-11-09T20:38:40;100728.00;;;18.80
51547;BMP180;37542;50.164;9.086;2022-11-09T20:42:21;100733.00;;;18.70
51547;BMP180;37542;50.164;9.086;2022-11-09T20:46:08;100736.00;;;18.70
51547;BMP180;37542;50.164;9.086;2022-11-09T20:49:49;100740.00;;;18.70
51547;BMP180;37542;50.164;9.086;2022-11-09T20:53:31;100756.00;;;18.60
51547;BMP180;37542;50.164;9.086;2022-11-09T20:57:12;100758.00;;;18.60
51547;BMP180;37542;50.164;9.086;2022-11-09T21:01:13;100755.00;;;18.50
51547;BMP180;37542;50.164;9.086;2022-11-09T21:04:54;100753.00;;;18.50
51547;BMP180;37542;50.164;9.086;2022-11-09T21:08:35;100759.00;;;18.40
51547;BMP180;37542;50.164;9.086;2022-11-09T21:12:16;100760.00;;;18.40
51547;BMP180;37542;50.164;9.086;2022-11-09T21:16:14;100757.00;;;18.30
51547;BMP180;37542;50.164;9.086;2022-11-09T21:19:55;100761.00;;;18.30
51547;BMP180;37542;50.164;9.086;2022-11-09T21:23:37;100768.00;;;18.20
51547;BMP180;37542;50.164;9.086;2022-11-09T21:27:37;100788.00;;;18.20
51547;BMP180;37542;50.164;9.086;2022-11-09T21:31:36;100795.00;;;18.10
51547;BMP180;37542;50.164;9.086;2022-11-09T21:35:17;100787.00;;;18.10
51547;BMP180;37542;50.164;9.086;2022-11-09T21:38:57;100799.00;;;18.00
51547;BMP180;37542;50.164;9.086;2022-11-09T21:42:38;100793.00;;;18.00
51547;BMP180;37542;50.164;9.086;2022-11-09T21:46:19;100803.00;;;17.90
51547;BMP180;37542;50.164;9.086;2022-11-09T21:49:59;100806.00;;;17.90
51547;BMP180;37542;50.164;9.086;2022-11-09T21:53:40;100812.00;;;17.80
51547;BMP180;37542;50.164;9.086;2022-11-09T21:57:21;100822.00;;;17.80
51547;BMP180;37542;50.164;9.086;2022-11-09T22:01:08;100837.00;;;17.70
51547;BMP180;37542;50.164;9.086;2022-11-09T22:04:52;100843.00;;;17.70
51547;BMP180;37542;50.164;9.086;2022-11-09T22:08:33;100848.00;;;17.70
51547;BMP180;37542;50.164;9.086;2022-11-09T22:12:13;100844.00;;;17.60
51547;BMP180;37542;50.164;9.086;2022-11-09T22:16:13;100846.00;;;17.60
51547;BMP180;37542;50.164;9.086;2022-11-09T22:19:54;100836.00;;;17.50
51547;BMP180;37542;50.164;9.086;2022-11-09T22:23:53;100864.00;;;17.50
51547;BMP180;37542;50.164;9.086;2022-11-09T22:27:34;100880.00;;;17.40
51547;BMP180;37542;50.164;9.086;2022-11-09T22:31:17;100856.00;;;17.40
51547;BMP180;37542;50.164;9.086;2022-11-09T22:34:58;100867.00;;;17.40
51547;BMP180;37542;50.164;9.086;2022-11-09T22:38:39;100885.00;;;17.40
51547;BMP180;37542;50.164;9.086;2022-11-09T22:42:20;100892.00;;;17.30
51547;BMP180;37542;50.164;9.086;2022-11-09T22:46:06;100901.00;;;17.20
51547;BMP180;37542;50.164;9.086;2022-11-09T22:49:47;100908.00;;;17.20